sensor_id;sensor_type;location;lat;lon;timestamp;P1;durP1;ratioP1;P2;durP2;ratioP2
44120;SDS011;29783;52.504;13.478;2024-01-30T00:01:40;14.95;;;8.10;;
44120;SDS011;29783;52.504;13.478;2024-01-30T00:04:06;14.63;;;7.40;;
44120;SDS011;29783;52.504;13.478;2024-01-30T00:06:32;19.15;;;8.05;;
44120;SDS011;29783;52.504;13.478;2024-01-30T00:08:57;16.75;;;7.88;;
44120;SDS011;29783;52.504;13.478;2024-01-30T00:11:23;15.68;;;6.97;;
44120;SDS011;29783;52.504;13.478;2024-01-30T00:13:50;18.13;;;7.97;;
44120;SDS011;29783;52.504;13.478;2024-01-30T00:16:23;17.13;;;7.28;;
44120;SDS011;29783;52.504;13.478;2024-01-30T00:18:52;14.13;;;6.63;;
44120;SDS011;29783;52.504;13.478;2024-01-30T00:21:18;12.55;;;6.88;;
44120;SDS011;29783;52.504;13.478;2024-01-30T00:23:44;14.45;;;7.55;;
44120;SDS011;29783;52.504;13.478;2024-01-30T00:26:10;13.93;;;7.10;;
44120;SDS011;29783;52.504;13.478;2024-01-30T00:28:36;18.23;;;7.75;;
44120;SDS011;29783;52.504;13.478;2024-01-30T00:31:02;16.30;;;7.63;;
44120;SDS011;29783;52.504;13.478;2024-01-30T00:33:28;21.15;;;7.90;;
44120;SDS011;29783;52.504;13.478;2024-01-30T00:35:54;14.27;;;7.60;;
44120;SDS011;29783;52.504;13.478;2024-01-30T00:38:19;17.73;;;8.18;;
44120;SDS011;29783;52.504;13.478;2024-01-30T00:40:45;17.33;;;7.97;;
44120;SDS011;29783;52.504;13.478;2024-01-30T00:43:10;16.25;;;7.40;;
44120;SDS011;29783;52.504;13.478;2024-01-30T00:45:36;15.70;;;7.55;;
44120;SDS011;29783;52.504;13.478;2024-01-30T00:48:02;15.40;;;7.38;;
44120;SDS011;29783;52.504;13.478;2024-01-30T00:50:28;12.00;;;7.10;;
44120;SDS011;29783;52.504;13.478;2024-01-30T00:52:53;20.67;;;7.78;;
44120;SDS011;29783;52.504;13.478;2024-01-30T00:55:19;14.60;;;7.55;;
44120;SDS011;29783;52.504;13.478;2024-01-30T00:57:45;15.68;;;6.90;;
44120;SDS011;29783;52.504;13.478;2024-01-30T01:00:10;12.10;;;6.95;;
44120;SDS011;29783;52.504;13.478;2024-01-30T01:02:37;17.00;;;8.77;;
44120;SDS011;29783;52.504;13.478;2024-01-30T01:05:04;12.57;;;7.40;;
44120;SDS011;29783;52.504;13.478;2024-01-30T01:07:30;13.60;;;6.68;;
44120;SDS011;29783;52.504;13.478;2024-01-30T01:09:56;14.95;;;7.30;;
44120;SDS011;29783;52.504;13.478;2024-01-30T01:12:22;13.05;;;7.10;;
44120;SDS011;29783;52.504;13.478;2024-01-30T01:14:47;12.07;;;6.85;;
44120;SDS011;29783;52.504;13.478;2024-01-30T01:17:13;13.43;;;6.85;;
44120;SDS011;29783;52.504;13.478;2024-01-30T01:19:38;19.45;;;7.30;;
44120;SDS011;29783;52.504;13.478;2024-01-30T01:22:04;15.50;;;7.30;;
44120;SDS011;29783;52.504;13.478;2024-01-30T01:24:31;11.93;;;5.78;;
44120;SDS011;29783;52.504;13.478;2024-01-30T01:26:58;13.52;;;6.68;;
44120;SDS011;29783;52.504;13.478;2024-01-30T01:29:23;13.90;;;7.43;;
44120;SDS011;29783;52.504;13.478;2024-01-30T01:31:54;13.98;;;7.70;;
44120;SDS011;29783;52.504;13.478;2024-01-30T01:34:21;10.60;;;6.78;;
44120;SDS011;29783;52.504;13.478;2024-01-30T01:36:46;13.65;;;7.70;;
44120;SDS011;29783;52.504;13.478;2024-01-30T01:39:12;15.77;;;7.97;;
44120;SDS011;29783;52.504;13.478;2024-01-30T01:41:38;12.75;;;7.35;;
44120;SDS011;29783;52.504;13.478;2024-01-30T01:44:03;15.77;;;7.75;;
44120;SDS011;29783;52.504;13.478;2024-01-30T01:46:30;14.40;;;7.35;;
44120;SDS011;29783;52.504;13.478;2024-01-30T01:48:58;16.48;;;8.40;;
44120;SDS011;29783;52.504;13.478;2024-01-30T01:51:25;16.60;;;7.70;;
44120;SDS011;29783;52.504;13.478;2024-01-30T01:53:53;17.75;;;8.25;;
44120;SDS011;29783;52.504;13.478;2024-01-30T01:56:20;20.58;;;8.95;;
44120;SDS011;29783;52.504;13.478;2024-01-30T01:58:46;13.88;;;8.02;;
44120;SDS011;29783;52.504;13.478;2024-01-30T02:01:13;19.88;;;8.38;;
44120;SDS011;29783;52.504;13.478;2024-01-30T02:03:40;17.13;;;7.75;;
44120;SDS011;29783;52.504;13.478;2024-01-30T02:06:07;14.00;;;7.45;;
44120;SDS011;29783;52.504;13.478;2024-01-30T02:08:32;21.88;;;7.97;;
44120;SDS011;29783;52.504;13.478;2024-01-30T02:10:58;14.35;;;7.57;;
44120;SDS011;29783;52.504;13.478;2024-01-30T02:13:24;13.90;;;7.80;;
44120;SDS011;29783;52.504;13.478;2024-01-30T02:15:53;16.27;;;8.35;;
44120;SDS011;29783;52.504;13.478;2024-01-30T02:18:19;13.98;;;7.63;;
44120;SDS011;29783;52.504;13.478;2024-01-30T02:20:45;17.48;;;7.97;;
44120;SDS011;29783;52.504;13.478;2024-01-30T02:23:11;15.48;;;7.78;;
44120;SDS011;29783;52.504;13.478;2024-01-30T02:25:41;17.60;;;8.70;;
44120;SDS011;29783;52.504;13.478;2024-01-30T02:28:12;15.57;;;8.40;;
44120;SDS011;29783;52.504;13.478;2024-01-30T02:30:44;10.85;;;7.35;;
44120;SDS011;29783;52.504;13.478;2024-01-30T02:33:11;15.10;;;7.53;;
44120;SDS011;29783;52.504;13.478;2024-01-30T02:35:39;17.00;;;7.13;;
44120;SDS011;29783;52.504;13.478;2024-01-30T02:38:05;13.80;;;7.22;;
44120;SDS011;29783;52.504;13.478;2024-01-30T02:40:31;14.15;;;7.40;;
44120;SDS011;29783;52.504;13.478;2024-01-30T02:43:01;17.23;;;7.22;;
44120;SDS011;29783;52.504;13.478;2024-01-30T02:45:27;13.02;;;7.60;;
44120;SDS011;29783;52.504;13.478;2024-01-30T02:47:53;14.48;;;8.02;;
44120;SDS011;29783;52.504;13.478;2024-01-30T02:50:18;20.75;;;7.68;;
44120;SDS011;29783;52.504;13.478;2024-01-30T02:52:44;14.10;;;7.13;;
44120;SDS011;29783;52.504;13.478;2024-01-30T02:55:10;16.52;;;7.20;;
44120;SDS011;29783;52.504;13.478;2024-01-30T02:57:36;13.05;;;7.22;;
44120;SDS011;29783;52.504;13.478;2024-01-30T03:00:02;15.50;;;7.40;;
44120;SDS011;29783;52.504;13.478;2024-01-30T03:02:29;16.20;;;7.82;;
44120;SDS011;29783;52.504;13.478;2024-01-30T03:04:54;16.13;;;7.40;;
44120;SDS011;29783;52.504;13.478;2024-01-30T03:07:20;12.98;;;7.07;;
44120;SDS011;29783;52.504;13.478;2024-01-30T03:09:45;13.82;;;7.53;;
44120;SDS011;29783;52.504;13.478;2024-01-30T03:12:11;17.88;;;6.53;;
44120;SDS011;29783;52.504;13.478;2024-01-30T03:14:37;13.15;;;7.00;;
44120;SDS011;29783;52.504;13.478;2024-01-30T03:17:02;13.15;;;7.63;;
44120;SDS011;29783;52.504;13.478;2024-01-30T03:19:28;13.75;;;7.40;;
44120;SDS011;29783;52.504;13.478;2024-01-30T03:21:54;13.82;;;7.65;;
44120;SDS011;29783;52.504;13.478;2024-01-30T03:24:19;19.40;;;7.25;;
44120;SDS011;29783;52.504;13.478;2024-01-30T03:26:45;12.43;;;6.95;;
44120;SDS011;29783;52.504;13.478;2024-01-30T03:29:11;14.48;;;7.55;;
44120;SDS011;29783;52.504;13.478;2024-01-30T03:31:36;11.38;;;7.20;;
44120;SDS011;29783;52.504;13.478;2024-01-30T03:34:02;15.68;;;7.68;;
44120;SDS011;29783;52.504;13.478;2024-01-30T03:36:28;19.77;;;8.10;;
44120;SDS011;29783;52.504;13.478;2024-01-30T03:38:53;18.38;;;8.02;;
44120;SDS011;29783;52.504;13.478;2024-01-30T03:41:19;16.92;;;8.38;;
44120;SDS011;29783;52.504;13.478;2024-01-30T03:43:45;19.85;;;10.80;;
44120;SDS011;29783;52.504;13.478;2024-01-30T03:46:13;19.92;;;10.75;;
44120;SDS011;29783;52.504;13.478;2024-01-30T03:48:39;17.77;;;9.55;;
44120;SDS011;29783;52.504;13.478;2024-01-30T03:51:05;17.55;;;9.00;;
44120;SDS011;29783;52.504;13.478;2024-01-30T03:53:30;16.10;;;7.95;;
44120;SDS011;29783;52.504;13.478;2024-01-30T03:55:56;24.08;;;8.07;;
44120;SDS011;29783;52.504;13.478;2024-01-30T03:58:22;24.17;;;8.70;;
44120;SDS011;29783;52.504;13.478;2024-01-30T04:00:47;14.02;;;7.70;;
44120;SDS011;29783;52.504;13.478;2024-01-30T04:03:16;15.60;;;7.65;;
44120;SDS011;29783;52.504;13.478;2024-01-30T04:05:42;18.13;;;8.20;;
44120;SDS011;29783;52.504;13.478;2024-01-30T04:08:07;16.08;;;7.57;;
44120;SDS011;29783;52.504;13.478;2024-01-30T04:10:33;12.15;;;8.02;;
44120;SDS011;29783;52.504;13.478;2024-01-30T04:12:59;17.20;;;7.93;;
44120;SDS011;29783;52.504;13.478;2024-01-30T04:15:25;15.70;;;7.85;;
44120;SDS011;29783;52.504;13.478;2024-01-30T04:17:51;18.67;;;7.60;;
44120;SDS011;29783;52.504;13.478;2024-01-30T04:20:17;17.38;;;7.72;;
44120;SDS011;29783;52.504;13.478;2024-01-30T04:22:43;17.27;;;7.65;;
44120;SDS011;29783;52.504;13.478;2024-01-30T04:25:09;16.63;;;7.40;;
44120;SDS011;29783;52.504;13.478;2024-01-30T04:27:35;14.85;;;7.97;;
44120;SDS011;29783;52.504;13.478;2024-01-30T04:30:01;15.88;;;7.57;;
44120;SDS011;29783;52.504;13.478;2024-01-30T04:32:26;15.82;;;7.22;;
44120;SDS011;29783;52.504;13.478;2024-01-30T04:34:52;15.00;;;7.82;;
44120;SDS011;29783;52.504;13.478;2024-01-30T04:37:17;14.75;;;7.78;;
44120;SDS011;29783;52.504;13.478;2024-01-30T04:39:43;13.50;;;7.53;;
44120;SDS011;29783;52.504;13.478;2024-01-30T04:42:09;16.73;;;8.02;;
44120;SDS011;29783;52.504;13.478;2024-01-30T04:44:34;19.75;;;8.38;;
44120;SDS011;29783;52.504;13.478;2024-01-30T04:47:00;15.13;;;8.32;;
44120;SDS011;29783;52.504;13.478;2024-01-30T04:49:26;14.43;;;7.82;;
44120;SDS011;29783;52.504;13.478;2024-01-30T04:51:54;13.18;;;7.88;;
44120;SDS011;29783;52.504;13.478;2024-01-30T04:54:19;14.95;;;8.02;;
44120;SDS011;29783;52.504;13.478;2024-01-30T04:56:45;18.65;;;8.07;;
44120;SDS011;29783;52.504;13.478;2024-01-30T04:59:11;21.38;;;8.02;;
44120;SDS011;29783;52.504;13.478;2024-01-30T05:01:37;17.95;;;8.00;;
44120;SDS011;29783;52.504;13.478;2024-01-30T05:04:03;15.13;;;8.00;;
44120;SDS011;29783;52.504;13.478;2024-01-30T05:06:28;17.13;;;7.75;;
44120;SDS011;29783;52.504;13.478;2024-01-30T05:08:54;13.40;;;7.43;;
44120;SDS011;29783;52.504;13.478;2024-01-30T05:11:20;18.83;;;8.23;;
44120;SDS011;29783;52.504;13.478;2024-01-30T05:13:46;16.23;;;8.20;;
44120;SDS011;29783;52.504;13.478;2024-01-30T05:16:12;16.98;;;8.15;;
44120;SDS011;29783;52.504;13.478;2024-01-30T05:18:38;14.32;;;7.35;;
44120;SDS011;29783;52.504;13.478;2024-01-30T05:21:03;28.02;;;8.50;;
44120;SDS011;29783;52.504;13.478;2024-01-30T05:23:30;19.85;;;8.65;;
44120;SDS011;29783;52.504;13.478;2024-01-30T05:25:56;17.75;;;8.95;;
44120;SDS011;29783;52.504;13.478;2024-01-30T05:28:21;21.75;;;8.68;;
44120;SDS011;29783;52.504;13.478;2024-01-30T05:30:47;20.98;;;9.52;;
44120;SDS011;29783;52.504;13.478;2024-01-30T05:33:12;15.60;;;8.23;;
44120;SDS011;29783;52.504;13.478;2024-01-30T05:35:38;20.05;;;8.80;;
44120;SDS011;29783;52.504;13.478;2024-01-30T05:38:04;16.33;;;9.35;;
44120;SDS011;29783;52.504;13.478;2024-01-30T05:40:32;19.42;;;9.05;;
44120;SDS011;29783;52.504;13.478;2024-01-30T05:42:58;18.67;;;8.48;;
44120;SDS011;29783;52.504;13.478;2024-01-30T05:45:26;22.60;;;8.48;;
44120;SDS011;29783;52.504;13.478;2024-01-30T05:47:52;14.48;;;9.25;;
44120;SDS011;29783;52.504;13.478;2024-01-30T05:50:18;13.05;;;7.60;;
44120;SDS011;29783;52.504;13.478;2024-01-30T05:52:44;28.30;;;8.40;;
44120;SDS011;29783;52.504;13.478;2024-01-30T05:55:11;23.70;;;8.95;;
44120;SDS011;29783;52.504;13.478;2024-01-30T05:57:37;17.70;;;8.38;;
44120;SDS011;29783;52.504;13.478;2024-01-30T06:00:04;15.93;;;8.10;;
44120;SDS011;29783;52.504;13.478;2024-01-30T06:02:30;15.50;;;8.50;;
44120;SDS011;29783;52.504;13.478;2024-01-30T06:04:56;17.45;;;8.43;;
44120;SDS011;29783;52.504;13.478;2024-01-30T06:07:22;19.58;;;8.93;;
44120;SDS011;29783;52.504;13.478;2024-01-30T06:09:47;18.05;;;8.80;;
44120;SDS011;29783;52.504;13.478;2024-01-30T06:12:13;21.25;;;9.60;;
44120;SDS011;29783;52.504;13.478;2024-01-30T06:14:39;14.25;;;8.48;;
44120;SDS011;29783;52.504;13.478;2024-01-30T06:17:07;14.05;;;7.82;;
44120;SDS011;29783;52.504;13.478;2024-01-30T06:19:33;19.85;;;8.45;;
44120;SDS011;29783;52.504;13.478;2024-01-30T06:21:58;19.80;;;8.50;;
44120;SDS011;29783;52.504;13.478;2024-01-30T06:24:24;14.43;;;8.43;;
44120;SDS011;29783;52.504;13.478;2024-01-30T06:26:50;20.10;;;9.18;;
44120;SDS011;29783;52.504;13.478;2024-01-30T06:29:15;12.07;;;8.20;;
44120;SDS011;29783;52.504;13.478;2024-01-30T06:31:41;17.58;;;9.02;;
44120;SDS011;29783;52.504;13.478;2024-01-30T06:34:07;18.27;;;8.63;;
44120;SDS011;29783;52.504;13.478;2024-01-30T06:36:34;19.23;;;8.68;;
44120;SDS011;29783;52.504;13.478;2024-01-30T06:38:59;21.70;;;8.35;;
44120;SDS011;29783;52.504;13.478;2024-01-30T06:41:26;17.63;;;8.25;;
44120;SDS011;29783;52.504;13.478;2024-01-30T06:43:51;18.00;;;9.05;;
44120;SDS011;29783;52.504;13.478;2024-01-30T06:46:17;21.50;;;8.88;;
44120;SDS011;29783;52.504;13.478;2024-01-30T06:48:43;18.40;;;9.30;;
44120;SDS011;29783;52.504;13.478;2024-01-30T06:51:09;17.27;;;8.13;;
44120;SDS011;29783;52.504;13.478;2024-01-30T06:53:36;20.55;;;9.50;;
44120;SDS011;29783;52.504;13.478;2024-01-30T06:56:02;18.20;;;8.10;;
44120;SDS011;29783;52.504;13.478;2024-01-30T06:58:28;21.42;;;8.80;;
44120;SDS011;29783;52.504;13.478;2024-01-30T07:00:54;21.33;;;9.20;;
44120;SDS011;29783;52.504;13.478;2024-01-30T07:03:20;26.05;;;9.40;;
44120;SDS011;29783;52.504;13.478;2024-01-30T07:05:46;18.73;;;9.10;;
44120;SDS011;29783;52.504;13.478;2024-01-30T07:08:12;16.60;;;8.45;;
44120;SDS011;29783;52.504;13.478;2024-01-30T07:10:37;21.30;;;9.35;;
44120;SDS011;29783;52.504;13.478;2024-01-30T07:13:03;14.32;;;8.90;;
44120;SDS011;29783;52.504;13.478;2024-01-30T07:15:30;20.02;;;10.02;;
44120;SDS011;29783;52.504;13.478;2024-01-30T07:17:56;15.63;;;9.18;;
44120;SDS011;29783;52.504;13.478;2024-01-30T07:20:22;22.35;;;9.48;;
44120;SDS011;29783;52.504;13.478;2024-01-30T07:22:47;21.77;;;10.13;;
44120;SDS011;29783;52.504;13.478;2024-01-30T07:25:13;20.52;;;8.90;;
44120;SDS011;29783;52.504;13.478;2024-01-30T07:27:39;19.85;;;9.68;;
44120;SDS011;29783;52.504;13.478;2024-01-30T07:30:05;19.85;;;9.00;;
44120;SDS011;29783;52.504;13.478;2024-01-30T07:32:31;19.85;;;9.25;;
44120;SDS011;29783;52.504;13.478;2024-01-30T07:34:57;20.33;;;10.43;;
44120;SDS011;29783;52.504;13.478;2024-01-30T07:37:22;30.10;;;10.05;;
44120;SDS011;29783;52.504;13.478;2024-01-30T07:39:48;18.77;;;10.27;;
44120;SDS011;29783;52.504;13.478;2024-01-30T07:42:14;18.55;;;9.38;;
44120;SDS011;29783;52.504;13.478;2024-01-30T07:44:39;22.58;;;9.48;;
44120;SDS011;29783;52.504;13.478;2024-01-30T07:47:05;26.70;;;9.18;;
44120;SDS011;29783;52.504;13.478;2024-01-30T07:49:30;18.65;;;9.35;;
44120;SDS011;29783;52.504;13.478;2024-01-30T07:51:59;23.05;;;9.57;;
44120;SDS011;29783;52.504;13.478;2024-01-30T07:54:25;24.67;;;9.32;;
44120;SDS011;29783;52.504;13.478;2024-01-30T08:03:42;20.98;;;10.73;;
44120;SDS011;29783;52.504;13.478;2024-01-30T08:06:08;26.48;;;11.90;;
44120;SDS011;29783;52.504;13.478;2024-01-30T08:08:34;26.92;;;11.93;;
44120;SDS011;29783;52.504;13.478;2024-01-30T08:11:00;24.88;;;14.07;;
44120;SDS011;29783;52.504;13.478;2024-01-30T08:13:26;24.13;;;12.02;;
44120;SDS011;29783;52.504;13.478;2024-01-30T08:15:51;23.05;;;12.60;;
44120;SDS011;29783;52.504;13.478;2024-01-30T08:18:17;19.13;;;9.90;;
44120;SDS011;29783;52.504;13.478;2024-01-30T08:20:42;26.83;;;10.60;;
44120;SDS011;29783;52.504;13.478;2024-01-30T08:23:08;22.33;;;10.48;;
44120;SDS011;29783;52.504;13.478;2024-01-30T08:25:34;29.02;;;10.23;;
44120;SDS011;29783;52.504;13.478;2024-01-30T08:28:01;20.98;;;9.35;;
44120;SDS011;29783;52.504;13.478;2024-01-30T08:30:27;28.30;;;10.68;;
44120;SDS011;29783;52.504;13.478;2024-01-30T08:32:52;28.38;;;9.73;;
44120;SDS011;29783;52.504;13.478;2024-01-30T08:35:18;21.38;;;9.52;;
44120;SDS011;29783;52.504;13.478;2024-01-30T08:37:43;22.52;;;9.05;;
44120;SDS011;29783;52.504;13.478;2024-01-30T08:40:09;26.13;;;10.68;;
44120;SDS011;29783;52.504;13.478;2024-01-30T08:42:35;18.65;;;10.07;;
44120;SDS011;29783;52.504;13.478;2024-01-30T08:45:00;24.90;;;10.27;;
44120;SDS011;29783;52.504;13.478;2024-01-30T08:47:26;19.60;;;9.85;;
44120;SDS011;29783;52.504;13.478;2024-01-30T08:49:52;23.40;;;9.98;;
44120;SDS011;29783;52.504;13.478;2024-01-30T08:52:17;24.25;;;9.93;;
44120;SDS011;29783;52.504;13.478;2024-01-30T08:54:43;25.13;;;10.63;;
44120;SDS011;29783;52.504;13.478;2024-01-30T08:57:08;22.20;;;10.57;;
44120;SDS011;29783;52.504;13.478;2024-01-30T08:59:34;25.40;;;10.32;;
44120;SDS011;29783;52.504;13.478;2024-01-30T09:02:00;20.42;;;11.73;;
44120;SDS011;29783;52.504;13.478;2024-01-30T09:04:25;25.15;;;10.48;;
44120;SDS011;29783;52.504;13.478;2024-01-30T09:06:51;23.33;;;10.55;;
44120;SDS011;29783;52.504;13.478;2024-01-30T09:09:17;22.52;;;9.43;;
44120;SDS011;29783;52.504;13.478;2024-01-30T09:11:43;17.80;;;9.52;;
44120;SDS011;29783;52.504;13.478;2024-01-30T09:14:08;19.42;;;9.63;;
44120;SDS011;29783;52.504;13.478;2024-01-30T09:16:34;19.77;;;8.95;;
44120;SDS011;29783;52.504;13.478;2024-01-30T09:19:00;16.40;;;8.57;;
44120;SDS011;29783;52.504;13.478;2024-01-30T09:21:26;18.33;;;8.82;;
44120;SDS011;29783;52.504;13.478;2024-01-30T09:23:53;24.88;;;8.70;;
44120;SDS011;29783;52.504;13.478;2024-01-30T09:26:19;15.10;;;8.07;;
44120;SDS011;29783;52.504;13.478;2024-01-30T09:28:45;16.20;;;8.10;;
44120;SDS011;29783;52.504;13.478;2024-01-30T09:31:13;18.73;;;8.18;;
44120;SDS011;29783;52.504;13.478;2024-01-30T09:33:39;16.60;;;8.43;;
44120;SDS011;29783;52.504;13.478;2024-01-30T09:36:05;14.73;;;7.95;;
44120;SDS011;29783;52.504;13.478;2024-01-30T09:38:31;16.33;;;8.55;;
44120;SDS011;29783;52.504;13.478;2024-01-30T09:40:57;15.65;;;8.38;;
44120;SDS011;29783;52.504;13.478;2024-01-30T09:43:29;23.00;;;8.88;;
44120;SDS011;29783;52.504;13.478;2024-01-30T09:45:59;18.83;;;8.50;;
44120;SDS011;29783;52.504;13.478;2024-01-30T09:48:27;16.17;;;7.90;;
44120;SDS011;29783;52.504;13.478;2024-01-30T09:50:55;15.05;;;8.23;;
44120;SDS011;29783;52.504;13.478;2024-01-30T09:53:22;22.48;;;8.55;;
44120;SDS011;29783;52.504;13.478;2024-01-30T09:55:48;16.10;;;7.72;;
44120;SDS011;29783;52.504;13.478;2024-01-30T09:58:15;18.63;;;8.25;;
44120;SDS011;29783;52.504;13.478;2024-01-30T10:00:41;18.00;;;9.07;;
44120;SDS011;29783;52.504;13.478;2024-01-30T10:03:07;16.58;;;8.52;;
44120;SDS011;29783;52.504;13.478;2024-01-30T10:05:34;16.85;;;8.35;;
44120;SDS011;29783;52.504;13.478;2024-01-30T10:08:05;13.98;;;7.90;;
44120;SDS011;29783;52.504;13.478;2024-01-30T10:10:33;15.05;;;8.02;;
44120;SDS011;29783;52.504;13.478;2024-01-30T10:12:59;12.75;;;7.40;;
44120;SDS011;29783;52.504;13.478;2024-01-30T10:15:25;15.98;;;7.90;;
44120;SDS011;29783;52.504;13.478;2024-01-30T10:17:52;13.93;;;7.75;;
44120;SDS011;29783;52.504;13.478;2024-01-30T10:20:18;13.77;;;7.30;;
44120;SDS011;29783;52.504;13.478;2024-01-30T10:22:44;17.52;;;7.82;;
44120;SDS011;29783;52.504;13.478;2024-01-30T10:25:10;21.95;;;8.07;;
44120;SDS011;29783;52.504;13.478;2024-01-30T10:27:36;15.23;;;7.63;;
44120;SDS011;29783;52.504;13.478;2024-01-30T10:30:04;17.48;;;7.78;;
44120;SDS011;29783;52.504;13.478;2024-01-30T10:32:30;19.95;;;7.93;;
44120;SDS011;29783;52.504;13.478;2024-01-30T10:34:56;14.10;;;7.18;;
44120;SDS011;29783;52.504;13.478;2024-01-30T10:37:21;12.00;;;6.72;;
44120;SDS011;29783;52.504;13.478;2024-01-30T10:39:50;19.10;;;8.02;;
44120;SDS011;29783;52.504;13.478;2024-01-30T10:42:20;15.90;;;7.10;;
44120;SDS011;29783;52.504;13.478;2024-01-30T10:44:55;11.65;;;6.95;;
44120;SDS011;29783;52.504;13.478;2024-01-30T10:47:30;21.25;;;7.50;;
44120;SDS011;29783;52.504;13.478;2024-01-30T10:49:59;12.88;;;6.88;;
44120;SDS011;29783;52.504;13.478;2024-01-30T10:52:25;11.27;;;7.05;;
44120;SDS011;29783;52.504;13.478;2024-01-30T10:54:53;15.85;;;6.93;;
44120;SDS011;29783;52.504;13.478;2024-01-30T10:57:19;14.68;;;6.95;;
44120;SDS011;29783;52.504;13.478;2024-01-30T10:59:47;17.45;;;6.65;;
44120;SDS011;29783;52.504;13.478;2024-01-30T11:02:14;13.95;;;6.45;;
44120;SDS011;29783;52.504;13.478;2024-01-30T11:04:41;18.95;;;5.80;;
44120;SDS011;29783;52.504;13.478;2024-01-30T11:09:48;15.02;;;6.13;;
44120;SDS011;29783;52.504;13.478;2024-01-30T11:12:38;12.02;;;5.65;;
44120;SDS011;29783;52.504;13.478;2024-01-30T11:15:17;11.27;;;5.15;;
44120;SDS011;29783;52.504;13.478;2024-01-30T11:17:44;11.40;;;6.00;;
44120;SDS011;29783;52.504;13.478;2024-01-30T11:22:56;20.00;;;5.70;;
44120;SDS011;29783;52.504;13.478;2024-01-30T11:25:22;12.68;;;5.32;;
44120;SDS011;29783;52.504;13.478;2024-01-30T11:27:49;13.40;;;5.35;;
44120;SDS011;29783;52.504;13.478;2024-01-30T11:30:22;11.63;;;5.10;;
44120;SDS011;29783;52.504;13.478;2024-01-30T11:32:58;10.85;;;5.50;;
44120;SDS011;29783;52.504;13.478;2024-01-30T11:35:26;9.55;;;5.22;;
44120;SDS011;29783;52.504;13.478;2024-01-30T11:37:52;10.95;;;5.38;;
44120;SDS011;29783;52.504;13.478;2024-01-30T11:40:19;12.65;;;5.82;;
44120;SDS011;29783;52.504;13.478;2024-01-30T11:42:44;10.65;;;4.72;;
44120;SDS011;29783;52.504;13.478;2024-01-30T11:45:12;10.60;;;5.55;;
44120;SDS011;29783;52.504;13.478;2024-01-30T11:47:38;9.88;;;4.97;;
44120;SDS011;29783;52.504;13.478;2024-01-30T11:50:04;14.35;;;5.88;;
44120;SDS011;29783;52.504;13.478;2024-01-30T11:52:31;10.27;;;5.63;;
44120;SDS011;29783;52.504;13.478;2024-01-30T11:55:00;11.38;;;5.35;;
44120;SDS011;29783;52.504;13.478;2024-01-30T11:57:28;8.43;;;5.47;;
44120;SDS011;29783;52.504;13.478;2024-01-30T11:59:54;11.05;;;6.15;;
44120;SDS011;29783;52.504;13.478;2024-01-30T12:02:20;11.35;;;5.65;;
44120;SDS011;29783;52.504;13.478;2024-01-30T12:04:45;11.27;;;6.25;;
44120;SDS011;29783;52.504;13.478;2024-01-30T12:07:11;14.32;;;6.30;;
44120;SDS011;29783;52.504;13.478;2024-01-30T12:09:40;20.48;;;7.22;;
44120;SDS011;29783;52.504;13.478;2024-01-30T12:12:06;15.18;;;5.65;;
44120;SDS011;29783;52.504;13.478;2024-01-30T12:14:36;13.70;;;6.20;;
44120;SDS011;29783;52.504;13.478;2024-01-30T12:17:06;13.52;;;6.30;;
44120;SDS011;29783;52.504;13.478;2024-01-30T12:19:33;12.18;;;6.43;;
44120;SDS011;29783;52.504;13.478;2024-01-30T12:21:59;13.90;;;6.50;;
44120;SDS011;29783;52.504;13.478;2024-01-30T12:24:27;12.82;;;5.90;;
44120;SDS011;29783;52.504;13.478;2024-01-30T12:26:58;14.98;;;6.75;;
44120;SDS011;29783;52.504;13.478;2024-01-30T12:29:24;10.48;;;5.90;;
44120;SDS011;29783;52.504;13.478;2024-01-30T12:31:52;10.88;;;6.15;;
44120;SDS011;29783;52.504;13.478;2024-01-30T12:34:19;20.17;;;6.43;;
44120;SDS011;29783;52.504;13.478;2024-01-30T12:36:46;12.30;;;5.50;;
44120;SDS011;29783;52.504;13.478;2024-01-30T12:39:13;11.48;;;5.97;;
44120;SDS011;29783;52.504;13.478;2024-01-30T12:41:40;13.07;;;6.03;;
44120;SDS011;29783;52.504;13.478;2024-01-30T12:44:05;10.57;;;6.68;;
44120;SDS011;29783;52.504;13.478;2024-01-30T12:46:33;16.73;;;5.80;;
44120;SDS011;29783;52.504;13.478;2024-01-30T12:49:00;11.05;;;6.50;;
44120;SDS011;29783;52.504;13.478;2024-01-30T12:51:25;19.17;;;6.35;;
44120;SDS011;29783;52.504;13.478;2024-01-30T12:53:54;12.20;;;6.00;;
44120;SDS011;29783;52.504;13.478;2024-01-30T12:56:19;15.20;;;6.32;;
44120;SDS011;29783;52.504;13.478;2024-01-30T12:58:45;17.85;;;6.15;;
44120;SDS011;29783;52.504;13.478;2024-01-30T13:01:11;13.82;;;6.40;;
44120;SDS011;29783;52.504;13.478;2024-01-30T13:03:37;11.68;;;7.00;;
44120;SDS011;29783;52.504;13.478;2024-01-30T13:06:02;13.65;;;6.47;;
44120;SDS011;29783;52.504;13.478;2024-01-30T13:08:28;26.58;;;6.60;;
44120;SDS011;29783;52.504;13.478;2024-01-30T13:10:54;13.73;;;6.93;;
44120;SDS011;29783;52.504;13.478;2024-01-30T13:13:19;12.52;;;6.63;;
44120;SDS011;29783;52.504;13.478;2024-01-30T13:15:45;13.23;;;6.63;;
44120;SDS011;29783;52.504;13.478;2024-01-30T13:18:11;13.55;;;6.18;;
44120;SDS011;29783;52.504;13.478;2024-01-30T13:20:36;14.50;;;6.10;;
44120;SDS011;29783;52.504;13.478;2024-01-30T13:23:02;21.45;;;6.57;;
44120;SDS011;29783;52.504;13.478;2024-01-30T13:25:27;13.13;;;6.30;;
44120;SDS011;29783;52.504;13.478;2024-01-30T13:27:53;15.02;;;6.18;;
44120;SDS011;29783;52.504;13.478;2024-01-30T13:30:19;16.00;;;6.55;;
44120;SDS011;29783;52.504;13.478;2024-01-30T13:32:44;18.75;;;6.47;;
44120;SDS011;29783;52.504;13.478;2024-01-30T13:35:11;14.95;;;6.82;;
44120;SDS011;29783;52.504;13.478;2024-01-30T13:37:36;11.13;;;6.03;;
44120;SDS011;29783;52.504;13.478;2024-01-30T13:40:04;11.70;;;6.10;;
44120;SDS011;29783;52.504;13.478;2024-01-30T13:42:34;17.05;;;5.25;;
44120;SDS011;29783;52.504;13.478;2024-01-30T13:44:59;11.60;;;6.28;;
44120;SDS011;29783;52.504;13.478;2024-01-30T13:47:25;15.00;;;6.50;;
44120;SDS011;29783;52.504;13.478;2024-01-30T13:49:51;10.95;;;5.57;;
44120;SDS011;29783;52.504;13.478;2024-01-30T13:52:19;17.95;;;6.72;;
44120;SDS011;29783;52.504;13.478;2024-01-30T13:54:44;19.20;;;7.45;;
44120;SDS011;29783;52.504;13.478;2024-01-30T13:57:10;29.13;;;7.30;;
44120;SDS011;29783;52.504;13.478;2024-01-30T13:59:37;17.90;;;6.43;;
44120;SDS011;29783;52.504;13.478;2024-01-30T14:02:03;19.35;;;6.85;;
44120;SDS011;29783;52.504;13.478;2024-01-30T14:04:29;22.65;;;6.82;;
44120;SDS011;29783;52.504;13.478;2024-01-30T14:06:54;22.88;;;7.20;;
44120;SDS011;29783;52.504;13.478;2024-01-30T14:09:20;14.55;;;6.53;;
44120;SDS011;29783;52.504;13.478;2024-01-30T14:11:46;13.52;;;6.10;;
44120;SDS011;29783;52.504;13.478;2024-01-30T14:14:12;12.02;;;6.13;;
44120;SDS011;29783;52.504;13.478;2024-01-30T14:16:37;13.85;;;6.30;;
44120;SDS011;29783;52.504;13.478;2024-01-30T14:19:03;13.63;;;6.63;;
44120;SDS011;29783;52.504;13.478;2024-01-30T14:21:29;12.27;;;5.95;;
44120;SDS011;29783;52.504;13.478;2024-01-30T14:23:54;12.15;;;6.40;;
44120;SDS011;29783;52.504;13.478;2024-01-30T14:26:20;18.40;;;5.97;;
44120;SDS011;29783;52.504;13.478;2024-01-30T14:28:46;12.45;;;6.55;;